Terminal Aerodrome Forecast
Issued by NWS

Home | Current Version | Previous Version | Text Only | Print | Product List | Glossary On
Versions: 1 2 3 4 5 6 7 8 9 10 11 12 13 14
000
FTUS45 KCYS 262341
TAFRWL
TAF
KRWL 262341Z 2700/2724 30015KT P6SM -SHRA BKN050 OVC100
     FM270200 33007KT P6SM OVC050
     FM271100 34006KT P6SM OVC020
     FM271700 33011KT P6SM -SHRA BKN050=

USA.gov is the U.S. government's official web portal to all federal, state and local government web resources and services.